Time;durP1;ratioP1;P1;durP2;ratioP2;P2;SDS_P1;SDS_P2;PMS_P1;PMS_P2;Temp;Humidity;BMP_temperature;BMP_pressure;BME280_temperature;BME280_humidity;BME280_pressure;Samples;Min_cycle;Max_cycle;Signal;HPM_P1;HPM_P2
2021/09/17 00:00:12;;;;;;;6.63;3.90;;;15.90;97.30;;;;;;5054466;28;20274;-82
2021/09/17 00:02:38;;;;;;;5.77;3.83;;;15.90;97.30;;;;;;5055426;28;20613;-82
2021/09/17 00:05:05;;;;;;;10.37;4.27;;;15.90;97.30;;;;;;5055901;28;20278;-84
2021/09/17 00:07:31;;;;;;;5.90;4.13;;;15.90;97.30;;;;;;5054042;28;20418;-82
2021/09/17 00:09:57;;;;;;;6.13;3.53;;;15.90;97.30;;;;;;5054775;28;20460;-83
2021/09/17 00:12:23;;;;;;;6.80;4.60;;;15.80;97.30;;;;;;5054579;28;20223;-81
2021/09/17 00:14:48;;;;;;;6.90;3.73;;;15.80;97.30;;;;;;5054520;28;20199;-81
2021/09/17 00:17:14;;;;;;;7.13;4.07;;;15.80;97.30;;;;;;5054595;28;20202;-81
2021/09/17 00:19:40;;;;;;;6.07;3.40;;;15.80;97.30;;;;;;5054996;28;20180;-81
2021/09/17 00:22:05;;;;;;;6.50;3.73;;;15.80;97.30;;;;;;5055314;28;20190;-81
2021/09/17 00:24:32;;;;;;;4.67;3.47;;;15.80;97.30;;;;;;5056800;28;20230;-81
2021/09/17 00:26:58;;;;;;;6.33;3.93;;;15.80;97.30;;;;;;5055566;28;20172;-82
2021/09/17 00:29:24;;;;;;;7.53;4.20;;;15.80;97.30;;;;;;5053252;28;20454;-82
2021/09/17 00:31:49;;;;;;;6.20;4.20;;;15.70;97.30;;;;;;5053762;28;20413;-83
2021/09/17 00:34:15;;;;;;;6.20;4.20;;;15.70;97.30;;;;;;5053746;28;20290;-81
2021/09/17 00:36:41;;;;;;;9.33;3.83;;;15.70;97.30;;;;;;5054020;28;20199;-82
2021/09/17 00:39:08;;;;;;;7.20;4.37;;;15.70;97.30;;;;;;5053781;28;20318;-82
2021/09/17 00:41:34;;;;;;;8.67;4.87;;;15.70;97.30;;;;;;5054282;28;20176;-82
2021/09/17 00:44:00;;;;;;;6.40;4.60;;;15.70;97.30;;;;;;5054838;28;21028;-82
2021/09/17 00:46:25;;;;;;;8.57;4.20;;;15.70;97.30;;;;;;5054788;28;20180;-83
2021/09/17 00:48:51;;;;;;;8.30;5.23;;;15.70;97.30;;;;;;5053754;28;20168;-82
2021/09/17 00:51:16;;;;;;;9.50;5.20;;;15.70;97.30;;;;;;5054025;28;20183;-83
2021/09/17 00:53:42;;;;;;;9.73;5.30;;;15.70;97.30;;;;;;5053075;28;20253;-82
2021/09/17 00:56:08;;;;;;;8.30;5.70;;;15.70;97.30;;;;;;5054406;28;20861;-82
2021/09/17 00:58:33;;;;;;;10.00;5.90;;;15.70;97.30;;;;;;5054456;28;20172;-81
2021/09/17 01:00:59;;;;;;;9.60;5.83;;;15.70;97.30;;;;;;5052906;28;20230;-83
2021/09/17 01:03:24;;;;;;;10.47;5.83;;;15.70;97.30;;;;;;5054213;28;20279;-83
2021/09/17 01:05:50;;;;;;;10.17;6.37;;;15.70;97.30;;;;;;5053354;28;20979;-83
2021/09/17 01:08:16;;;;;;;10.47;6.63;;;15.70;97.30;;;;;;5053271;28;20866;-83
2021/09/17 01:10:42;;;;;;;11.90;6.97;;;15.70;97.30;;;;;;5052921;28;20203;-81
2021/09/17 01:13:09;;;;;;;18.07;8.30;;;15.70;97.30;;;;;;5052668;28;20196;-82
2021/09/17 01:15:34;;;;;;;13.97;7.17;;;15.70;97.30;;;;;;5052850;28;20452;-82
2021/09/17 01:18:00;;;;;;;15.13;6.70;;;15.70;97.30;;;;;;5053397;28;20505;-83
2021/09/17 01:20:25;;;;;;;20.07;7.57;;;15.60;97.30;;;;;;5053041;28;20661;-82
2021/09/17 01:22:51;;;;;;;15.20;7.70;;;15.60;97.30;;;;;;5052999;28;20211;-82
2021/09/17 01:25:19;;;;;;;14.53;7.17;;;15.70;97.30;;;;;;5052137;28;20203;-82
2021/09/17 01:27:47;;;;;;;12.40;7.27;;;15.60;97.30;;;;;;5052651;28;20174;-80
2021/09/17 01:30:14;;;;;;;15.23;7.03;;;15.60;97.30;;;;;;5053136;28;20410;-82
2021/09/17 01:32:41;;;;;;;14.00;7.90;;;15.60;97.30;;;;;;5052689;28;20437;-82
2021/09/17 01:35:11;;;;;;;14.00;7.37;;;15.60;97.30;;;;;;5052846;28;20414;-82
2021/09/17 01:37:37;;;;;;;16.70;7.50;;;15.60;97.30;;;;;;5052344;28;20430;-82
2021/09/17 01:40:05;;;;;;;15.47;8.07;;;15.60;97.30;;;;;;5052896;28;20970;-82
2021/09/17 01:42:30;;;;;;;17.43;9.53;;;15.60;97.30;;;;;;5052423;28;20438;-82
2021/09/17 01:44:56;;;;;;;18.30;7.87;;;15.60;97.30;;;;;;5052383;28;20470;-83
2021/09/17 01:47:21;;;;;;;15.43;7.83;;;15.60;97.30;;;;;;5053054;28;20183;-82
2021/09/17 01:49:47;;;;;;;17.17;8.20;;;15.60;97.30;;;;;;5053463;28;20638;-83
2021/09/17 01:52:13;;;;;;;11.60;7.10;;;15.60;97.30;;;;;;5052355;28;20180;-82
2021/09/17 01:54:40;;;;;;;16.20;7.77;;;15.60;97.30;;;;;;5052653;28;20244;-83
2021/09/17 01:57:06;;;;;;;15.60;7.53;;;15.60;97.30;;;;;;5052369;28;20180;-82
2021/09/17 01:59:32;;;;;;;12.33;7.00;;;15.60;97.30;;;;;;5052407;28;20426;-83
2021/09/17 02:01:57;;;;;;;12.17;7.00;;;15.60;97.30;;;;;;5051636;28;20172;-82
2021/09/17 02:04:23;;;;;;;25.17;7.83;;;15.60;97.30;;;;;;5051623;28;20203;-82
2021/09/17 02:06:48;;;;;;;16.73;7.37;;;15.50;97.30;;;;;;5051908;28;20187;-82
2021/09/17 02:09:14;;;;;;;13.47;7.43;;;15.50;97.30;;;;;;5052507;28;20651;-84
2021/09/17 02:11:40;;;;;;;12.00;6.97;;;15.50;97.30;;;;;;5051873;28;20626;-82
2021/09/17 02:14:05;;;;;;;14.00;7.77;;;15.50;97.30;;;;;;5051922;28;20899;-82
2021/09/17 02:16:31;;;;;;;16.10;7.47;;;15.50;97.30;;;;;;5053224;28;20776;-82
2021/09/17 02:18:57;;;;;;;14.47;7.50;;;15.40;97.30;;;;;;5052286;28;20532;-82
2021/09/17 02:21:22;;;;;;;11.53;7.03;;;15.40;97.30;;;;;;5052049;28;20180;-83
2021/09/17 02:23:49;;;;;;;12.43;6.90;;;15.40;97.30;;;;;;5053029;28;20196;-83
2021/09/17 02:26:16;;;;;;;11.53;7.20;;;15.40;97.30;;;;;;5051588;28;20180;-82
2021/09/17 02:28:42;;;;;;;14.13;8.17;;;15.40;97.30;;;;;;5051750;28;20419;-82
2021/09/17 02:31:08;;;;;;;18.07;8.70;;;15.40;97.30;;;;;;5052835;28;20414;-82
2021/09/17 02:33:34;;;;;;;14.80;7.73;;;15.40;97.30;;;;;;5052892;28;20795;-81
2021/09/17 02:36:00;;;;;;;15.67;8.20;;;15.40;97.30;;;;;;5053207;28;20505;-80
2021/09/17 02:38:26;;;;;;;15.53;7.93;;;15.40;97.30;;;;;;5053437;28;20244;-83
2021/09/17 02:40:52;;;;;;;17.13;9.63;;;15.40;97.30;;;;;;5052604;28;20206;-81
2021/09/17 02:43:18;;;;;;;16.00;8.57;;;15.40;97.30;;;;;;5053183;28;20277;-81
2021/09/17 02:45:43;;;;;;;17.77;9.03;;;15.40;97.30;;;;;;5052853;28;20454;-81
2021/09/17 02:48:09;;;;;;;16.57;8.87;;;15.40;97.30;;;;;;5051604;28;20665;-82
2021/09/17 02:50:35;;;;;;;18.37;8.33;;;15.40;97.30;;;;;;5051391;28;20183;-82
2021/09/17 02:53:01;;;;;;;16.77;8.67;;;15.40;97.30;;;;;;5051704;28;20196;-83
2021/09/17 02:55:26;;;;;;;21.23;9.10;;;15.40;97.30;;;;;;5051485;28;20266;-82
2021/09/17 02:57:52;;;;;;;20.67;10.00;;;15.30;97.30;;;;;;5052021;28;20179;-81
2021/09/17 03:00:20;;;;;;;19.87;8.87;;;15.30;97.30;;;;;;5051958;28;20175;-81
2021/09/17 03:02:46;;;;;;;18.83;9.80;;;15.30;97.30;;;;;;5051410;28;20429;-82
2021/09/17 03:05:12;;;;;;;26.07;9.13;;;15.30;97.30;;;;;;5051191;28;20450;-83
2021/09/17 03:07:38;;;;;;;18.00;10.70;;;15.30;97.30;;;;;;5052558;28;20402;-82
2021/09/17 03:10:05;;;;;;;22.40;9.80;;;15.30;97.30;;;;;;5051068;28;20540;-82
2021/09/17 03:12:31;;;;;;;16.37;8.70;;;15.30;97.30;;;;;;5051429;28;20214;-82
2021/09/17 03:14:57;;;;;;;18.40;8.73;;;15.30;97.30;;;;;;5052807;28;20414;-82
2021/09/17 03:17:22;;;;;;;19.27;9.87;;;15.30;97.30;;;;;;5051915;28;20422;-82
2021/09/17 03:19:48;;;;;;;16.77;9.10;;;15.20;97.30;;;;;;5051098;28;20217;-82
2021/09/17 03:22:14;;;;;;;18.87;8.90;;;15.20;97.30;;;;;;5051336;28;20668;-81
2021/09/17 03:24:39;;;;;;;19.83;9.30;;;15.20;97.30;;;;;;5051475;28;20235;-82
2021/09/17 03:27:05;;;;;;;21.80;9.93;;;15.20;97.30;;;;;;5051752;28;20171;-81
2021/09/17 03:29:30;;;;;;;17.10;9.73;;;15.10;97.30;;;;;;5051383;28;20175;-82
2021/09/17 03:31:56;;;;;;;19.53;10.17;;;15.10;97.30;;;;;;5051120;28;20668;-82
2021/09/17 03:34:22;;;;;;;18.60;9.70;;;15.10;97.30;;;;;;5050856;28;20176;-83
2021/09/17 03:36:47;;;;;;;20.23;9.03;;;15.10;97.30;;;;;;5051119;28;20187;-83
2021/09/17 03:39:14;;;;;;;19.60;10.47;;;15.10;97.30;;;;;;5052398;28;20257;-82
2021/09/17 03:41:44;;;;;;;19.30;9.60;;;15.10;97.30;;;;;;5050922;28;20261;-83
2021/09/17 03:44:10;;;;;;;17.47;9.23;;;15.10;97.30;;;;;;5050999;28;20470;-83
2021/09/17 03:46:35;;;;;;;20.43;9.70;;;15.10;97.30;;;;;;5052231;28;20896;-83
2021/09/17 03:49:01;;;;;;;20.10;8.93;;;15.10;97.30;;;;;;5050702;28;20176;-82
2021/09/17 03:51:27;;;;;;;16.00;8.23;;;15.10;97.30;;;;;;5051352;28;20172;-83
2021/09/17 03:53:52;;;;;;;15.70;8.70;;;15.10;97.30;;;;;;5051164;28;20245;-82
2021/09/17 03:56:18;;;;;;;14.90;7.57;;;15.00;97.30;;;;;;5050964;28;20195;-83
2021/09/17 03:58:44;;;;;;;14.47;8.20;;;15.00;97.30;;;;;;5051724;28;20172;-83
2021/09/17 04:01:09;;;;;;;13.20;8.80;;;15.10;97.30;;;;;;5051231;28;20433;-83
2021/09/17 04:03:35;;;;;;;15.27;8.67;;;15.00;97.30;;;;;;5050900;28;20192;-82
2021/09/17 04:06:00;;;;;;;15.30;7.83;;;15.00;97.30;;;;;;5053807;28;20207;-82
2021/09/17 04:08:26;;;;;;;13.00;7.03;;;15.00;97.30;;;;;;5054216;28;20176;-81
2021/09/17 04:10:51;;;;;;;15.03;7.23;;;15.00;97.30;;;;;;5055064;28;20168;-82
2021/09/17 04:13:17;;;;;;;13.20;6.83;;;15.00;97.30;;;;;;5054430;28;20646;-82
2021/09/17 04:15:43;;;;;;;17.97;8.40;;;15.00;97.30;;;;;;5053834;28;20667;-83
2021/09/17 04:18:08;;;;;;;14.37;8.27;;;15.00;97.30;;;;;;5064213;28;20179;-83
2021/09/17 04:20:34;;;;;;;15.63;8.00;;;15.00;97.30;;;;;;5075122;28;20182;-83
2021/09/17 04:22:59;;;;;;;17.43;7.50;;;15.00;97.30;;;;;;5075214;28;20205;-82
2021/09/17 04:25:25;;;;;;;22.37;9.60;;;15.00;97.30;;;;;;5074984;28;20199;-82
2021/09/17 04:27:51;;;;;;;14.27;8.53;;;15.00;97.30;;;;;;5073988;28;20178;-80
2021/09/17 04:30:17;;;;;;;18.10;7.77;;;15.00;97.30;;;;;;5074019;28;20406;-82
2021/09/17 04:32:44;;;;;;;15.37;8.23;;;15.00;97.30;;;;;;5055295;28;20551;-82
2021/09/17 04:35:10;;;;;;;17.60;7.73;;;15.00;97.30;;;;;;5058980;28;20202;-83
2021/09/17 04:37:44;;;;;;;14.27;7.40;;;15.00;97.30;;;;;;5068862;28;20410;-82
2021/09/17 04:40:13;;;;;;;15.90;7.60;;;15.00;97.30;;;;;;5066634;28;20414;-82
2021/09/17 04:42:39;;;;;;;15.50;7.63;;;14.90;97.30;;;;;;5058284;28;20517;-82
2021/09/17 04:45:06;;;;;;;11.97;7.37;;;14.90;97.30;;;;;;5055886;28;20907;-81
2021/09/17 04:47:32;;;;;;;15.17;7.57;;;14.90;97.30;;;;;;5070193;28;20418;-83
2021/09/17 04:49:59;;;;;;;12.60;8.17;;;14.90;97.30;;;;;;5058069;28;20434;-82
2021/09/17 04:52:25;;;;;;;15.23;7.20;;;14.90;97.30;;;;;;5054745;28;20973;-81
2021/09/17 04:54:52;;;;;;;13.17;7.17;;;14.90;97.30;;;;;;5064675;28;20413;-79
2021/09/17 04:57:18;;;;;;;16.07;6.97;;;14.90;97.30;;;;;;5061981;28;20433;-84
2021/09/17 04:59:43;;;;;;;14.53;6.67;;;14.90;97.30;;;;;;5063410;28;20471;-82
2021/09/17 05:02:09;;;;;;;11.93;7.40;;;14.90;97.30;;;;;;5056011;28;20800;-82
2021/09/17 05:04:34;;;;;;;12.10;6.43;;;14.90;97.30;;;;;;5053117;28;20272;-78
2021/09/17 05:07:00;;;;;;;10.90;5.97;;;14.90;97.30;;;;;;5052916;28;20313;-77
2021/09/17 05:09:26;;;;;;;15.80;6.70;;;14.90;97.30;;;;;;5053118;28;20220;-78
2021/09/17 05:11:52;;;;;;;8.77;5.60;;;14.80;97.30;;;;;;5054570;28;20217;-78
2021/09/17 05:14:17;;;;;;;11.83;5.70;;;14.80;97.30;;;;;;5052550;28;20870;-79
2021/09/17 05:16:45;;;;;;;7.50;4.60;;;14.90;97.30;;;;;;5052828;28;20180;-78
2021/09/17 05:19:12;;;;;;;9.37;5.23;;;14.90;97.30;;;;;;5051862;28;20179;-78
2021/09/17 05:21:38;;;;;;;9.33;6.03;;;14.90;97.30;;;;;;5053078;28;20414;-78
2021/09/17 05:24:03;;;;;;;8.30;4.97;;;14.90;97.30;;;;;;5052138;28;20481;-78
2021/09/17 05:26:29;;;;;;;9.30;5.30;;;14.80;97.30;;;;;;5053678;28;20422;-78
2021/09/17 05:28:55;;;;;;;11.33;5.40;;;14.90;97.30;;;;;;5053212;28;20172;-78
2021/09/17 05:31:21;;;;;;;10.87;5.67;;;14.90;97.30;;;;;;5052507;28;20568;-79
2021/09/17 05:33:46;;;;;;;12.00;7.00;;;15.00;97.30;;;;;;5052587;28;20196;-78
2021/09/17 05:36:12;;;;;;;13.70;4.93;;;15.00;97.30;;;;;;5052475;28;20463;-78
2021/09/17 05:38:38;;;;;;;12.47;5.00;;;15.00;97.30;;;;;;5049850;28;20264;-79
2021/09/17 05:41:03;;;;;;;17.63;5.43;;;15.00;97.30;;;;;;5049346;28;20172;-79
2021/09/17 05:43:29;;;;;;;9.63;5.10;;;15.00;97.30;;;;;;5052167;28;20299;-78
2021/09/17 05:45:54;;;;;;;12.80;5.37;;;15.00;97.30;;;;;;5051901;28;20200;-78
2021/09/17 05:48:23;;;;;;;9.67;5.50;;;15.00;97.30;;;;;;5052249;28;20737;-78
2021/09/17 05:50:50;;;;;;;7.87;5.20;;;15.10;97.30;;;;;;5053568;28;20175;-79
2021/09/17 05:53:16;;;;;;;10.33;5.60;;;15.10;97.30;;;;;;5053324;28;20463;-79
2021/09/17 05:55:42;;;;;;;9.27;5.27;;;15.10;97.30;;;;;;5052349;28;20450;-78
2021/09/17 05:58:07;;;;;;;11.73;5.40;;;15.10;97.30;;;;;;5049870;28;20421;-79
2021/09/17 06:00:33;;;;;;;11.30;6.10;;;15.10;97.30;;;;;;5049960;28;20179;-78
2021/09/17 06:02:59;;;;;;;9.00;5.63;;;15.00;97.30;;;;;;5049685;28;20196;-79
2021/09/17 06:05:24;;;;;;;9.03;5.20;;;15.00;97.30;;;;;;5049493;28;20200;-79
2021/09/17 06:07:50;;;;;;;10.40;5.80;;;15.00;97.30;;;;;;5051104;28;20256;-78
2021/09/17 06:10:15;;;;;;;10.87;6.00;;;15.00;97.30;;;;;;5051767;28;20238;-78
2021/09/17 06:12:42;;;;;;;16.93;6.20;;;15.00;97.30;;;;;;5051179;28;20295;-79
2021/09/17 06:15:08;;;;;;;11.57;5.77;;;15.00;97.30;;;;;;5049128;28;20644;-79
2021/09/17 06:17:34;;;;;;;12.20;6.00;;;15.00;97.30;;;;;;5050695;28;20899;-78
2021/09/17 06:19:59;;;;;;;11.70;6.20;;;15.00;97.30;;;;;;5049010;28;20516;-79
2021/09/17 06:22:25;;;;;;;10.57;5.60;;;15.00;97.30;;;;;;5048643;28;20211;-79
2021/09/17 06:24:50;;;;;;;7.67;4.20;;;15.00;97.30;;;;;;5049910;28;20199;-79
2021/09/17 06:27:16;;;;;;;7.53;4.50;;;15.00;97.30;;;;;;5050327;28;20607;-80
2021/09/17 06:29:42;;;;;;;5.10;3.67;;;14.90;97.30;;;;;;5051193;28;20180;-79
2021/09/17 06:32:07;;;;;;;7.43;3.33;;;14.90;97.30;;;;;;5051027;28;20245;-79
2021/09/17 06:34:33;;;;;;;5.13;3.60;;;14.90;97.30;;;;;;5050887;28;20279;-80
2021/09/17 06:36:58;;;;;;;7.93;4.40;;;14.80;97.30;;;;;;5050244;28;20556;-80
2021/09/17 06:39:24;;;;;;;6.10;3.97;;;14.80;97.30;;;;;;5049650;28;20183;-80
2021/09/17 06:41:51;;;;;;;7.10;4.00;;;14.80;97.30;;;;;;5050647;28;20225;-80
2021/09/17 06:44:17;;;;;;;7.83;4.60;;;14.80;97.30;;;;;;5049945;28;20251;-79
2021/09/17 06:46:44;;;;;;;11.70;4.80;;;14.80;97.30;;;;;;5070978;28;20444;-79
2021/09/17 06:49:09;;;;;;;10.87;5.53;;;14.70;97.30;;;;;;5071348;28;20421;-79
2021/09/17 06:51:35;;;;;;;10.87;5.40;;;14.70;97.30;;;;;;5071011;28;20175;-80
2021/09/17 06:54:00;;;;;;;7.00;5.10;;;14.60;97.30;;;;;;5069953;28;20294;-80
2021/09/17 06:56:26;;;;;;;8.43;4.97;;;14.60;97.30;;;;;;5072482;28;20184;-80
2021/09/17 06:58:51;;;;;;;8.60;5.20;;;14.60;97.30;;;;;;5072450;28;20525;-80
2021/09/17 07:01:18;;;;;;;9.90;5.67;;;14.60;97.30;;;;;;5070906;28;20179;-80
2021/09/17 07:03:44;;;;;;;20.37;6.30;;;14.60;97.30;;;;;;5069627;28;20611;-80
2021/09/17 07:06:10;;;;;;;12.73;5.93;;;14.60;97.30;;;;;;5070212;28;20465;-79
2021/09/17 07:08:35;;;;;;;15.63;6.67;;;14.60;97.30;;;;;;5070942;28;20171;-79
2021/09/17 07:11:01;;;;;;;14.93;6.63;;;14.60;97.30;;;;;;5069378;28;20179;-80
2021/09/17 07:13:27;;;;;;;14.23;6.53;;;14.60;97.30;;;;;;5069433;28;20290;-80
2021/09/17 07:15:53;;;;;;;14.90;7.13;;;14.60;97.30;;;;;;5068232;28;20426;-80
2021/09/17 07:18:18;;;;;;;17.07;7.23;;;14.60;97.30;;;;;;5068803;28;20179;-80
2021/09/17 07:20:44;;;;;;;12.90;7.10;;;14.70;97.30;;;;;;5068173;28;20240;-79
2021/09/17 07:23:11;;;;;;;16.50;8.10;;;14.80;97.30;;;;;;5068841;28;20206;-79
2021/09/17 07:25:37;;;;;;;11.70;7.00;;;14.80;97.30;;;;;;5069380;28;20311;-79
2021/09/17 07:28:04;;;;;;;14.33;7.20;;;14.90;97.30;;;;;;5069327;28;20934;-79
2021/09/17 07:30:31;;;;;;;10.33;6.20;;;14.90;97.30;;;;;;5069234;28;20507;-79
2021/09/17 07:32:57;;;;;;;9.50;5.80;;;14.90;97.30;;;;;;5070465;28;20950;-79
2021/09/17 07:35:23;;;;;;;11.97;5.70;;;14.90;97.30;;;;;;5069164;28;20426;-79
2021/09/17 07:37:49;;;;;;;7.73;5.00;;;15.00;97.30;;;;;;5071543;28;20990;-79
2021/09/17 07:40:16;;;;;;;8.33;4.37;;;15.10;97.30;;;;;;5074293;28;20509;-79
2021/09/17 07:42:43;;;;;;;10.53;4.53;;;15.10;97.30;;;;;;5073851;28;20234;-79
2021/09/17 07:45:10;;;;;;;8.17;4.03;;;15.10;97.30;;;;;;5075352;28;20507;-79
2021/09/17 07:47:36;;;;;;;6.30;4.43;;;15.20;97.30;;;;;;5073491;28;20419;-80
2021/09/17 07:50:02;;;;;;;13.77;5.60;;;15.20;97.30;;;;;;5072406;28;20414;-79
2021/09/17 07:52:28;;;;;;;7.60;4.93;;;15.20;97.30;;;;;;5073124;28;20199;-79
2021/09/17 07:54:53;;;;;;;13.10;7.20;;;15.20;97.30;;;;;;5073344;28;20777;-79
2021/09/17 07:57:19;;;;;;;9.27;6.70;;;15.20;97.30;;;;;;5072931;28;20624;-79
2021/09/17 07:59:44;;;;;;;10.03;6.30;;;15.30;97.30;;;;;;5073935;28;20503;-79
2021/09/17 08:02:10;;;;;;;9.93;6.43;;;15.30;97.30;;;;;;5072158;28;20648;-79
2021/09/17 08:04:38;;;;;;;14.33;6.60;;;15.30;97.30;;;;;;5072504;28;20546;-79
2021/09/17 08:07:05;;;;;;;11.50;6.63;;;15.40;97.30;;;;;;5072315;28;20224;-80
2021/09/17 08:09:30;;;;;;;12.07;6.50;;;15.40;97.30;;;;;;5073313;28;20440;-79
2021/09/17 08:11:56;;;;;;;9.57;5.60;;;15.50;97.30;;;;;;5072821;28;20844;-79
2021/09/17 08:14:21;;;;;;;9.13;5.80;;;15.50;97.30;;;;;;5073828;28;20234;-80
2021/09/17 08:16:47;;;;;;;9.33;5.60;;;15.50;97.30;;;;;;5072825;28;20656;-79
2021/09/17 08:19:13;;;;;;;9.07;5.30;;;15.50;97.30;;;;;;5072155;28;20603;-79
2021/09/17 08:21:41;;;;;;;11.17;7.20;;;15.50;97.30;;;;;;5072264;28;20175;-79
2021/09/17 08:24:15;;;;;;;9.30;5.67;;;15.60;97.30;;;;;;5072958;28;20195;-79
2021/09/17 08:26:47;;;;;;;9.00;3.83;;;15.60;97.30;;;;;;5072091;28;20420;-79
2021/09/17 08:29:12;;;;;;;6.33;2.90;;;15.50;97.30;;;;;;5073781;28;20493;-79
2021/09/17 08:31:39;;;;;;;3.30;2.80;;;15.60;97.30;;;;;;5071943;28;20500;-79
2021/09/17 08:34:06;;;;;;;4.90;2.47;;;15.60;97.30;;;;;;5071683;28;20202;-80
2021/09/17 08:36:32;;;;;;;3.93;2.73;;;15.60;97.30;;;;;;5073437;28;20460;-79
2021/09/17 08:38:58;;;;;;;6.20;3.00;;;15.70;97.30;;;;;;5073054;28;20497;-79
2021/09/17 08:41:24;;;;;;;5.60;3.13;;;15.80;97.30;;;;;;5071861;28;20977;-79
2021/09/17 08:43:50;;;;;;;9.57;3.00;;;15.80;97.30;;;;;;5074133;28;20229;-80
2021/09/17 08:46:16;;;;;;;4.07;2.50;;;15.90;97.30;;;;;;5073627;28;20934;-79
2021/09/17 08:48:43;;;;;;;8.20;3.20;;;15.90;97.30;;;;;;5071603;28;20183;-79
2021/09/17 08:51:09;;;;;;;4.63;2.80;;;15.90;97.30;;;;;;5071495;28;20422;-79
2021/09/17 08:53:35;;;;;;;13.90;3.93;;;16.00;97.30;;;;;;5072104;28;20455;-79
2021/09/17 08:56:01;;;;;;;5.30;3.00;;;15.90;97.30;;;;;;5072815;28;20680;-79
2021/09/17 08:58:27;;;;;;;4.90;3.30;;;16.00;97.30;;;;;;5073611;28;20413;-79
2021/09/17 09:00:53;;;;;;;2.90;2.60;;;16.00;97.30;;;;;;5072917;28;20179;-78
2021/09/17 09:03:48;;;;;;;4.13;3.23;;;16.00;97.30;;;;;;5072426;28;20499;-79
2021/09/17 09:06:15;;;;;;;4.50;2.90;;;16.00;97.30;;;;;;5072886;28;20486;-79
2021/09/17 09:08:43;;;;;;;5.00;3.07;;;16.00;97.30;;;;;;5073283;28;20512;-79
2021/09/17 09:11:16;;;;;;;7.27;3.37;;;16.10;97.30;;;;;;5073245;28;20421;-79
2021/09/17 09:14:08;;;;;;;4.03;2.67;;;16.10;97.30;;;;;;5074393;28;20814;-79
2021/09/17 09:16:46;;;;;;;4.57;2.97;;;16.20;97.30;;;;;;5073340;28;20996;-79
2021/09/17 09:19:29;;;;;;;6.03;3.47;;;16.20;97.30;;;;;;5073109;28;20424;-79
2021/09/17 09:22:06;;;;;;;4.50;3.60;;;16.20;97.30;;;;;;5073283;28;20931;-79
2021/09/17 09:24:43;;;;;;;4.87;2.30;;;16.30;97.30;;;;;;5073376;28;20480;-78
2021/09/17 09:27:15;;;;;;;2.40;2.23;;;16.30;97.30;;;;;;5074240;28;20397;-79
2021/09/17 09:29:44;;;;;;;5.43;2.83;;;16.30;97.30;;;;;;5072846;28;20968;-78
2021/09/17 09:32:30;;;;;;;6.90;3.73;;;16.40;97.30;;;;;;5073868;28;20410;-79
2021/09/17 09:35:07;;;;;;;4.80;3.60;;;16.50;97.30;;;;;;5071856;28;20505;-78
2021/09/17 09:37:38;;;;;;;5.43;3.23;;;16.50;97.30;;;;;;5071030;28;20804;-79
2021/09/17 09:40:07;;;;;;;5.70;2.60;;;16.50;97.30;;;;;;5072708;28;20440;-79
2021/09/17 09:42:44;;;;;;;7.37;3.57;;;16.50;97.30;;;;;;5071086;28;20502;-79
2021/09/17 09:45:10;;;;;;;3.90;3.20;;;16.50;97.30;;;;;;5070704;28;20980;-79
2021/09/17 09:47:38;;;;;;;4.83;2.93;;;16.50;97.30;;;;;;5070280;28;20508;-78
2021/09/17 09:50:10;;;;;;;5.00;3.20;;;16.50;97.30;;;;;;5070902;28;20180;-79
2021/09/17 09:52:36;;;;;;;4.57;3.30;;;16.40;97.30;;;;;;5070592;28;20452;-78
2021/09/17 09:55:04;;;;;;;5.20;3.40;;;16.30;97.30;;;;;;5071486;28;20417;-78
2021/09/17 09:57:32;;;;;;;5.00;3.30;;;16.30;97.30;;;;;;5070521;28;20421;-79
2021/09/17 10:00:03;;;;;;;10.33;3.90;;;16.30;97.30;;;;;;5070030;28;20434;-79
2021/09/17 10:02:30;;;;;;;5.87;3.03;;;16.30;97.30;;;;;;5069440;28;20441;-78
2021/09/17 10:04:58;;;;;;;9.13;3.63;;;16.30;97.30;;;;;;5069640;28;20468;-78
2021/09/17 10:07:27;;;;;;;7.70;3.67;;;16.30;97.30;;;;;;5069690;28;20417;-79
2021/09/17 10:09:53;;;;;;;10.83;3.20;;;16.40;97.30;;;;;;5069512;28;20761;-78
2021/09/17 10:12:18;;;;;;;6.33;3.63;;;16.40;97.30;;;;;;5069929;28;20986;-79
2021/09/17 10:14:46;;;;;;;6.43;3.60;;;16.50;97.30;;;;;;5069986;28;20183;-79
2021/09/17 10:17:19;;;;;;;3.50;3.07;;;16.60;97.30;;;;;;5070399;28;20181;-79
2021/09/17 10:19:46;;;;;;;4.80;2.80;;;16.70;97.30;;;;;;5070074;28;20508;-78
2021/09/17 10:22:43;;;;;;;2.90;2.33;;;16.70;97.30;;;;;;5069937;28;20423;-78
2021/09/17 10:25:16;;;;;;;4.10;2.83;;;16.90;97.30;;;;;;5072174;28;20892;-79
2021/09/17 10:27:45;;;;;;;2.97;2.10;;;17.00;97.30;;;;;;5070555;28;20784;-79
2021/09/17 10:30:14;;;;;;;8.00;2.37;;;17.10;97.30;;;;;;5070945;28;20501;-79
2021/09/17 10:32:50;;;;;;;1.77;1.67;;;17.20;97.30;;;;;;5073187;28;20436;-79
2021/09/17 10:35:21;;;;;;;1.43;1.40;;;17.20;97.30;;;;;;5071501;28;20473;-78
2021/09/17 10:38:05;;;;;;;3.10;1.70;;;17.40;97.30;;;;;;5071673;28;20433;-79
2021/09/17 10:40:43;;;;;;;2.70;1.57;;;17.50;97.30;;;;;;5071483;28;20421;-79
2021/09/17 10:43:09;;;;;;;2.57;1.50;;;17.70;97.30;;;;;;5070448;28;20568;-79
2021/09/17 10:45:40;;;;;;;2.67;1.47;;;17.90;97.30;;;;;;5070659;28;20536;-80
2021/09/17 10:48:07;;;;;;;2.10;1.50;;;18.00;97.30;;;;;;5072217;28;20587;-79
2021/09/17 10:50:48;;;;;;;2.20;1.50;;;18.10;97.30;;;;;;5071555;28;20464;-80
2021/09/17 10:53:34;;;;;;;1.80;1.70;;;18.20;97.30;;;;;;5070865;28;20441;-77
2021/09/17 10:56:03;;;;;;;2.00;1.80;;;18.20;97.30;;;;;;5070129;28;20537;-79
2021/09/17 10:58:30;;;;;;;2.60;1.40;;;18.20;97.30;;;;;;5070400;28;20500;-78
2021/09/17 11:00:57;;;;;;;2.47;1.50;;;18.20;97.30;;;;;;5070834;28;20425;-78
2021/09/17 11:03:50;;;;;;;2.53;1.60;;;18.20;97.10;;;;;;5069802;28;20929;-78
2021/09/17 11:06:18;;;;;;;2.67;1.57;;;18.20;97.20;;;;;;5071113;28;20442;-78
2021/09/17 11:08:44;;;;;;;2.23;1.70;;;18.10;96.90;;;;;;5070642;28;20408;-78
2021/09/17 11:11:49;;;;;;;2.53;1.67;;;18.00;97.30;;;;;;5071068;28;20927;-78
2021/09/17 11:14:14;;;;;;;2.33;1.90;;;18.00;97.30;;;;;;5071525;28;20441;-78
2021/09/17 11:16:41;;;;;;;4.40;1.60;;;18.00;97.30;;;;;;5074666;28;20421;-76
2021/09/17 11:19:09;;;;;;;5.13;1.80;;;18.00;97.30;;;;;;5075381;28;20178;-78
2021/09/17 11:21:38;;;;;;;2.50;2.20;;;17.90;97.30;;;;;;5074220;28;20410;-78
2021/09/17 11:24:05;;;;;;;1.73;1.70;;;17.80;97.30;;;;;;5074943;28;20433;-78
2021/09/17 11:26:35;;;;;;;2.37;1.77;;;17.80;97.30;;;;;;5075379;28;20778;-77
2021/09/17 11:29:08;;;;;;;3.63;2.10;;;17.70;97.30;;;;;;5076101;28;20413;-77
2021/09/17 11:31:59;;;;;;;1.70;1.60;;;17.70;97.30;;;;;;5075341;28;20489;-79
2021/09/17 11:34:26;;;;;;;6.90;2.60;;;17.70;97.30;;;;;;5073782;28;20773;-78
2021/09/17 11:36:54;;;;;;;4.40;2.63;;;17.70;97.30;;;;;;5074722;28;20421;-81
2021/09/17 11:39:26;;;;;;;4.73;2.47;;;17.60;97.30;;;;;;5060344;28;20472;-79
2021/09/17 11:41:57;;;;;;;2.37;2.17;;;17.60;97.30;;;;;;5075367;28;21142;-79
2021/09/17 11:44:40;;;;;;;2.83;2.40;;;17.60;97.30;;;;;;5074902;28;20994;-80
2021/09/17 11:47:06;;;;;;;3.20;2.40;;;17.50;97.30;;;;;;5061329;28;20411;-77
2021/09/17 11:49:34;;;;;;;4.53;2.17;;;17.70;97.30;;;;;;5055265;28;20413;-78
2021/09/17 11:52:09;;;;;;;3.90;2.40;;;18.00;97.30;;;;;;5055565;28;20183;-79
2021/09/17 11:54:36;;;;;;;4.97;2.30;;;18.30;97.30;;;;;;5055021;28;20414;-81
2021/09/17 11:57:13;;;;;;;5.43;2.07;;;18.70;97.30;;;;;;5053758;28;20419;-78
2021/09/17 11:59:44;;;;;;;3.60;2.40;;;19.00;97.30;;;;;;5054562;28;20402;-78
2021/09/17 12:02:13;;;;;;;2.37;1.83;;;19.20;96.40;;;;;;5056773;28;20793;-78
2021/09/17 12:04:41;;;;;;;2.50;2.30;;;19.40;96.50;;;;;;5072651;28;20484;-78
2021/09/17 12:07:07;;;;;;;2.07;1.93;;;19.70;96.80;;;;;;5072148;28;20410;-80
2021/09/17 12:09:33;;;;;;;3.60;2.70;;;19.90;95.70;;;;;;5067905;28;20418;-79
2021/09/17 12:11:59;;;;;;;4.60;2.30;;;20.00;94.30;;;;;;5054187;28;20996;-78
2021/09/17 12:14:25;;;;;;;3.87;2.60;;;19.90;94.60;;;;;;5054086;28;20168;-78
2021/09/17 12:16:50;;;;;;;3.83;2.20;;;19.80;94.80;;;;;;5068540;28;20417;-80
2021/09/17 12:19:16;;;;;;;3.00;2.37;;;19.60;95.50;;;;;;5086860;28;20167;-78
2021/09/17 12:21:41;;;;;;;4.43;2.23;;;19.40;95.20;;;;;;5088776;28;20178;-79
2021/09/17 12:24:21;;;;;;;3.93;2.37;;;19.20;96.00;;;;;;5090258;28;20201;-80
2021/09/17 12:26:55;;;;;;;3.97;2.57;;;19.10;96.30;;;;;;5093371;28;20174;-79
2021/09/17 12:29:22;;;;;;;2.43;2.17;;;19.00;96.50;;;;;;5091246;28;20988;-79
2021/09/17 12:31:47;;;;;;;3.60;2.20;;;18.90;97.00;;;;;;5092977;28;20449;-79
2021/09/17 12:34:16;;;;;;;5.10;2.50;;;18.80;96.90;;;;;;5094997;28;20817;-81
2021/09/17 12:36:47;;;;;;;5.83;2.60;;;18.70;96.90;;;;;;5076736;28;20175;-80
2021/09/17 12:39:13;;;;;;;4.00;2.50;;;18.60;96.60;;;;;;5073617;28;20398;-80
2021/09/17 12:41:38;;;;;;;3.63;2.33;;;18.50;97.30;;;;;;5086684;28;20408;-79
2021/09/17 12:44:10;;;;;;;2.87;2.60;;;18.40;97.30;;;;;;5091992;28;20234;-80